sensor_id;sensor_type;location;lat;lon;timestamp;pressure;altitude;pressure_sealevel;temperature;humidity
5691;BME280;2870;42.680;23.364;2023-08-31T00:02:07;94587.59;;;22.37;57.61
5691;BME280;2870;42.680;23.364;2023-08-31T00:04:34;94586.03;;;22.34;57.51
5691;BME280;2870;42.680;23.364;2023-08-31T00:07:01;94580.34;;;22.34;57.65
5691;BME280;2870;42.680;23.364;2023-08-31T00:09:28;94589.88;;;22.22;58.40
5691;BME280;2870;42.680;23.364;2023-08-31T00:11:55;94577.72;;;22.22;57.74
5691;BME280;2870;42.680;23.364;2023-08-31T00:14:22;94581.06;;;22.16;57.74
5691;BME280;2870;42.680;23.364;2023-08-31T00:16:48;94583.84;;;22.14;57.65
5691;BME280;2870;42.680;23.364;2023-08-31T00:19:16;94588.84;;;22.14;57.71
5691;BME280;2870;42.680;23.364;2023-08-31T00:21:43;94579.59;;;22.15;58.04
5691;BME280;2870;42.680;23.364;2023-08-31T00:24:10;94585.03;;;22.09;57.79
5691;BME280;2870;42.680;23.364;2023-08-31T00:26:37;94572.06;;;22.06;58.53
5691;BME280;2870;42.680;23.364;2023-08-31T00:29:06;94569.59;;;21.99;58.81
5691;BME280;2870;42.680;23.364;2023-08-31T00:31:32;94580.38;;;22.00;58.90
5691;BME280;2870;42.680;23.364;2023-08-31T00:33:59;94581.50;;;21.93;58.97
5691;BME280;2870;42.680;23.364;2023-08-31T00:36:30;94592.19;;;21.92;59.21
5691;BME280;2870;42.680;23.364;2023-08-31T00:38:57;94582.81;;;21.90;59.88
5691;BME280;2870;42.680;23.364;2023-08-31T00:41:24;94591.47;;;21.92;59.28
5691;BME280;2870;42.680;23.364;2023-08-31T00:43:51;94604.28;;;21.91;59.46
5691;BME280;2870;42.680;23.364;2023-08-31T00:46:18;94594.97;;;21.90;58.71
5691;BME280;2870;42.680;23.364;2023-08-31T00:48:45;94601.25;;;21.87;59.88
5691;BME280;2870;42.680;23.364;2023-08-31T00:51:12;94546.78;;;21.47;60.22
5691;BME280;2870;42.680;23.364;2023-08-31T00:53:40;94605.50;;;21.86;59.49
5691;BME280;2870;42.680;23.364;2023-08-31T00:56:08;94611.09;;;21.84;60.38
5691;BME280;2870;42.680;23.364;2023-08-31T00:58:35;94610.47;;;21.85;59.12
5691;BME280;2870;42.680;23.364;2023-08-31T01:01:06;94613.94;;;21.84;59.79
5691;BME280;2870;42.680;23.364;2023-08-31T01:03:43;94615.59;;;21.89;59.69
5691;BME280;2870;42.680;23.364;2023-08-31T01:06:18;94606.63;;;21.79;60.28
5691;BME280;2870;42.680;23.364;2023-08-31T01:08:54;94605.88;;;21.78;60.90
5691;BME280;2870;42.680;23.364;2023-08-31T01:11:29;94606.25;;;21.70;61.55
5691;BME280;2870;42.680;23.364;2023-08-31T01:14:03;94607.00;;;21.71;61.32
5691;BME280;2870;42.680;23.364;2023-08-31T01:16:35;94614.13;;;21.54;62.70
5691;BME280;2870;42.680;23.364;2023-08-31T01:19:06;94602.72;;;21.38;63.40
5691;BME280;2870;42.680;23.364;2023-08-31T01:21:42;94614.16;;;21.23;64.21
5691;BME280;2870;42.680;23.364;2023-08-31T01:24:13;94621.03;;;21.02;65.33
5691;BME280;2870;42.680;23.364;2023-08-31T01:26:40;94612.94;;;20.80;66.45
5691;BME280;2870;42.680;23.364;2023-08-31T01:29:08;94623.72;;;20.52;67.37
5691;BME280;2870;42.680;23.364;2023-08-31T01:31:41;94621.72;;;20.55;68.67
5691;BME280;2870;42.680;23.364;2023-08-31T01:34:08;94626.41;;;20.48;68.73
5691;BME280;2870;42.680;23.364;2023-08-31T01:36:38;94572.47;;;19.93;69.72
5691;BME280;2870;42.680;23.364;2023-08-31T01:39:12;94617.09;;;20.18;70.23
5691;BME280;2870;42.680;23.364;2023-08-31T01:41:45;94619.03;;;20.29;70.20
5691;BME280;2870;42.680;23.364;2023-08-31T01:44:16;94629.84;;;20.17;70.76
5691;BME280;2870;42.680;23.364;2023-08-31T01:46:46;94626.56;;;20.23;71.98
5691;BME280;2870;42.680;23.364;2023-08-31T01:49:12;94617.59;;;20.28;71.69
5691;BME280;2870;42.680;23.364;2023-08-31T01:51:39;94619.41;;;20.22;71.11
5691;BME280;2870;42.680;23.364;2023-08-31T01:54:06;94621.22;;;20.15;71.93
5691;BME280;2870;42.680;23.364;2023-08-31T01:56:33;94623.84;;;20.11;73.06
5691;BME280;2870;42.680;23.364;2023-08-31T01:59:01;94621.75;;;20.11;72.65
5691;BME280;2870;42.680;23.364;2023-08-31T02:04:30;94631.50;;;19.79;74.10
5691;BME280;2870;42.680;23.364;2023-08-31T02:06:57;94642.88;;;19.79;73.62
5691;BME280;2870;42.680;23.364;2023-08-31T02:09:23;94635.09;;;19.79;73.95
5691;BME280;2870;42.680;23.364;2023-08-31T02:11:50;94630.03;;;19.78;74.11
5691;BME280;2870;42.680;23.364;2023-08-31T02:14:19;94640.91;;;19.68;73.50
5691;BME280;2870;42.680;23.364;2023-08-31T02:16:46;94643.75;;;19.68;74.10
5691;BME280;2870;42.680;23.364;2023-08-31T02:19:13;94638.06;;;19.68;74.03
5691;BME280;2870;42.680;23.364;2023-08-31T02:21:41;94643.13;;;19.69;75.36
5691;BME280;2870;42.680;23.364;2023-08-31T02:24:08;94631.09;;;19.71;74.36
5691;BME280;2870;42.680;23.364;2023-08-31T02:26:35;94637.00;;;19.75;74.05
5691;BME280;2870;42.680;23.364;2023-08-31T02:29:03;94639.31;;;19.78;73.05
5691;BME280;2870;42.680;23.364;2023-08-31T02:31:31;94639.75;;;19.87;73.23
5691;BME280;2870;42.680;23.364;2023-08-31T02:33:57;94633.50;;;19.90;72.33
5691;BME280;2870;42.680;23.364;2023-08-31T02:36:24;94626.44;;;19.91;71.96
5691;BME280;2870;42.680;23.364;2023-08-31T02:38:51;94631.06;;;19.98;72.10
5691;BME280;2870;42.680;23.364;2023-08-31T02:41:18;94622.31;;;19.94;72.94
5691;BME280;2870;42.680;23.364;2023-08-31T02:43:45;94639.69;;;20.00;73.15
5691;BME280;2870;42.680;23.364;2023-08-31T02:46:12;94632.00;;;20.03;72.72
5691;BME280;2870;42.680;23.364;2023-08-31T02:48:40;94644.88;;;20.04;72.54
5691;BME280;2870;42.680;23.364;2023-08-31T02:51:07;94646.69;;;19.97;71.44
5691;BME280;2870;42.680;23.364;2023-08-31T02:53:34;94642.34;;;19.96;71.60
5691;BME280;2870;42.680;23.364;2023-08-31T02:56:01;94650.88;;;19.96;72.40
5691;BME280;2870;42.680;23.364;2023-08-31T02:58:28;94657.34;;;19.97;73.02
5691;BME280;2870;42.680;23.364;2023-08-31T03:00:55;94650.19;;;19.82;72.94
5691;BME280;2870;42.680;23.364;2023-08-31T03:03:22;94661.47;;;19.80;73.80
5691;BME280;2870;42.680;23.364;2023-08-31T03:05:55;94664.06;;;19.90;73.29
5691;BME280;2870;42.680;23.364;2023-08-31T03:08:21;94666.94;;;19.76;73.12
5691;BME280;2870;42.680;23.364;2023-08-31T03:10:48;94669.47;;;19.70;73.16
5691;BME280;2870;42.680;23.364;2023-08-31T03:13:15;94661.34;;;19.78;73.51
5691;BME280;2870;42.680;23.364;2023-08-31T03:15:42;94674.09;;;19.77;74.82
5691;BME280;2870;42.680;23.364;2023-08-31T03:18:08;94671.56;;;19.83;73.96
5691;BME280;2870;42.680;23.364;2023-08-31T03:20:35;94685.88;;;19.85;73.43
5691;BME280;2870;42.680;23.364;2023-08-31T03:23:03;94674.50;;;19.85;73.91
5691;BME280;2870;42.680;23.364;2023-08-31T03:25:30;94672.63;;;19.76;74.33
5691;BME280;2870;42.680;23.364;2023-08-31T03:27:57;94678.00;;;19.70;74.08
5691;BME280;2870;42.680;23.364;2023-08-31T03:30:24;94674.28;;;19.40;75.10
5691;BME280;2870;42.680;23.364;2023-08-31T03:32:50;94666.69;;;19.44;76.00
5691;BME280;2870;42.680;23.364;2023-08-31T03:35:17;94671.75;;;19.18;76.38
5691;BME280;2870;42.680;23.364;2023-08-31T03:37:46;94672.66;;;19.09;76.62
5691;BME280;2870;42.680;23.364;2023-08-31T03:40:15;94679.53;;;19.18;76.68
5691;BME280;2870;42.680;23.364;2023-08-31T03:42:41;94687.06;;;18.99;77.71
5691;BME280;2870;42.680;23.364;2023-08-31T03:45:09;94684.81;;;18.84;78.73
5691;BME280;2870;42.680;23.364;2023-08-31T03:47:35;94691.75;;;18.81;79.20
5691;BME280;2870;42.680;23.364;2023-08-31T03:50:03;94698.66;;;19.03;78.15
5691;BME280;2870;42.680;23.364;2023-08-31T03:52:30;94693.47;;;19.00;79.39
5691;BME280;2870;42.680;23.364;2023-08-31T03:54:56;94686.00;;;18.93;80.08
5691;BME280;2870;42.680;23.364;2023-08-31T03:57:24;94703.97;;;18.84;80.08
5691;BME280;2870;42.680;23.364;2023-08-31T03:59:52;94701.31;;;18.74;80.14
5691;BME280;2870;42.680;23.364;2023-08-31T04:02:18;94705.16;;;18.67;81.34
5691;BME280;2870;42.680;23.364;2023-08-31T04:04:45;94706.50;;;18.66;81.40
5691;BME280;2870;42.680;23.364;2023-08-31T04:07:12;94711.97;;;18.62;81.86
5691;BME280;2870;42.680;23.364;2023-08-31T04:09:39;94721.88;;;18.49;81.79
5691;BME280;2870;42.680;23.364;2023-08-31T04:12:06;94728.44;;;18.51;81.83
5691;BME280;2870;42.680;23.364;2023-08-31T04:14:34;94732.47;;;18.60;82.07
5691;BME280;2870;42.680;23.364;2023-08-31T04:17:01;94742.22;;;18.69;82.34
5691;BME280;2870;42.680;23.364;2023-08-31T04:19:30;94739.31;;;18.80;81.92
5691;BME280;2870;42.680;23.364;2023-08-31T04:21:57;94746.25;;;18.77;82.11
5691;BME280;2870;42.680;23.364;2023-08-31T04:24:24;94750.28;;;18.86;80.88
5691;BME280;2870;42.680;23.364;2023-08-31T04:26:50;94751.81;;;19.01;81.06
5691;BME280;2870;42.680;23.364;2023-08-31T04:29:17;94749.81;;;19.03;80.15
5691;BME280;2870;42.680;23.364;2023-08-31T04:31:45;94752.75;;;19.05;79.19
5691;BME280;2870;42.680;23.364;2023-08-31T04:34:12;94749.25;;;19.19;78.82
5691;BME280;2870;42.680;23.364;2023-08-31T04:36:38;94743.88;;;19.25;76.55
5691;BME280;2870;42.680;23.364;2023-08-31T04:39:05;94751.97;;;19.17;76.36
5691;BME280;2870;42.680;23.364;2023-08-31T04:41:33;94747.44;;;19.12;76.39
5691;BME280;2870;42.680;23.364;2023-08-31T04:43:59;94752.66;;;19.29;77.25
5691;BME280;2870;42.680;23.364;2023-08-31T04:46:26;94746.13;;;19.40;76.85
5691;BME280;2870;42.680;23.364;2023-08-31T04:48:54;94761.69;;;19.39;77.01
5691;BME280;2870;42.680;23.364;2023-08-31T04:51:31;94757.94;;;19.48;77.07
5691;BME280;2870;42.680;23.364;2023-08-31T04:53:59;94747.59;;;19.41;74.16
5691;BME280;2870;42.680;23.364;2023-08-31T04:56:29;94757.97;;;19.62;74.53
5691;BME280;2870;42.680;23.364;2023-08-31T04:58:56;94767.69;;;19.71;74.94
5691;BME280;2870;42.680;23.364;2023-08-31T05:01:23;94763.91;;;19.80;74.87
5691;BME280;2870;42.680;23.364;2023-08-31T05:03:50;94768.13;;;19.93;74.76
5691;BME280;2870;42.680;23.364;2023-08-31T05:06:18;94768.13;;;20.06;74.24
5691;BME280;2870;42.680;23.364;2023-08-31T05:08:46;94767.28;;;20.18;72.50
5691;BME280;2870;42.680;23.364;2023-08-31T05:11:13;94765.78;;;20.30;72.80
5691;BME280;2870;42.680;23.364;2023-08-31T05:13:40;94762.53;;;20.22;70.83
5691;BME280;2870;42.680;23.364;2023-08-31T05:16:07;94774.31;;;20.44;71.01
5691;BME280;2870;42.680;23.364;2023-08-31T05:18:34;94763.25;;;20.50;71.83
5691;BME280;2870;42.680;23.364;2023-08-31T05:21:01;94777.56;;;20.66;70.19
5691;BME280;2870;42.680;23.364;2023-08-31T05:23:30;94795.41;;;20.53;69.08
5691;BME280;2870;42.680;23.364;2023-08-31T05:25:57;94783.16;;;20.64;71.91
5691;BME280;2870;42.680;23.364;2023-08-31T05:28:23;94780.81;;;20.74;72.08
5691;BME280;2870;42.680;23.364;2023-08-31T05:30:51;94787.84;;;20.87;70.99
5691;BME280;2870;42.680;23.364;2023-08-31T05:33:18;94779.78;;;20.97;70.59
5691;BME280;2870;42.680;23.364;2023-08-31T05:35:45;94773.25;;;20.95;71.48
5691;BME280;2870;42.680;23.364;2023-08-31T05:38:12;94770.09;;;21.18;70.47
5691;BME280;2870;42.680;23.364;2023-08-31T05:40:40;94776.81;;;21.25;70.23
5691;BME280;2870;42.680;23.364;2023-08-31T05:43:10;94776.63;;;21.21;69.29
5691;BME280;2870;42.680;23.364;2023-08-31T05:45:37;94777.63;;;21.11;69.81
5691;BME280;2870;42.680;23.364;2023-08-31T05:48:05;94782.13;;;20.87;69.63
5691;BME280;2870;42.680;23.364;2023-08-31T05:50:31;94770.19;;;20.90;70.18
5691;BME280;2870;42.680;23.364;2023-08-31T05:52:58;94772.66;;;21.12;69.62
5691;BME280;2870;42.680;23.364;2023-08-31T05:55:25;94765.41;;;21.25;70.84
5691;BME280;2870;42.680;23.364;2023-08-31T05:57:53;94775.13;;;21.49;68.89
5691;BME280;2870;42.680;23.364;2023-08-31T06:00:20;94773.38;;;21.58;69.78
5691;BME280;2870;42.680;23.364;2023-08-31T06:02:47;94767.84;;;21.46;67.43
5691;BME280;2870;42.680;23.364;2023-08-31T06:05:13;94781.88;;;21.56;68.71
5691;BME280;2870;42.680;23.364;2023-08-31T06:07:42;94789.50;;;21.51;67.90
5691;BME280;2870;42.680;23.364;2023-08-31T06:10:09;94795.56;;;21.14;69.20
5691;BME280;2870;42.680;23.364;2023-08-31T06:12:36;94783.56;;;21.02;69.66
5691;BME280;2870;42.680;23.364;2023-08-31T06:15:05;94791.97;;;21.13;69.71
5691;BME280;2870;42.680;23.364;2023-08-31T06:17:32;94805.22;;;21.36;70.51
5691;BME280;2870;42.680;23.364;2023-08-31T06:20:00;94808.38;;;21.58;69.68
5691;BME280;2870;42.680;23.364;2023-08-31T06:22:27;94799.44;;;21.50;69.57
5691;BME280;2870;42.680;23.364;2023-08-31T06:24:54;94800.63;;;21.77;68.76
5691;BME280;2870;42.680;23.364;2023-08-31T06:27:20;94806.28;;;21.90;68.61
5691;BME280;2870;42.680;23.364;2023-08-31T06:29:47;94806.16;;;22.04;66.11
5691;BME280;2870;42.680;23.364;2023-08-31T06:32:15;94819.16;;;21.91;67.10
5691;BME280;2870;42.680;23.364;2023-08-31T06:34:42;94815.03;;;22.10;67.51
5691;BME280;2870;42.680;23.364;2023-08-31T06:37:09;94827.63;;;22.05;65.81
5691;BME280;2870;42.680;23.364;2023-08-31T06:39:36;94817.84;;;22.42;64.91
5691;BME280;2870;42.680;23.364;2023-08-31T06:42:03;94824.38;;;22.94;62.06
5691;BME280;2870;42.680;23.364;2023-08-31T06:44:30;94823.16;;;23.17;61.54
5691;BME280;2870;42.680;23.364;2023-08-31T06:46:57;94829.13;;;23.05;60.27
5691;BME280;2870;42.680;23.364;2023-08-31T06:49:25;94825.59;;;23.24;57.07
5691;BME280;2870;42.680;23.364;2023-08-31T06:52:01;94828.84;;;23.52;58.48
5691;BME280;2870;42.680;23.364;2023-08-31T06:54:28;94816.53;;;23.12;55.79
5691;BME280;2870;42.680;23.364;2023-08-31T06:56:55;94836.16;;;23.38;56.17
5691;BME280;2870;42.680;23.364;2023-08-31T06:59:22;94827.88;;;23.46;55.45
5691;BME280;2870;42.680;23.364;2023-08-31T07:01:48;94837.13;;;23.80;54.99
5691;BME280;2870;42.680;23.364;2023-08-31T07:04:15;94836.06;;;24.09;54.88
5691;BME280;2870;42.680;23.364;2023-08-31T07:06:42;94839.91;;;23.60;55.00
5691;BME280;2870;42.680;23.364;2023-08-31T07:09:10;94829.03;;;23.74;55.55
5691;BME280;2870;42.680;23.364;2023-08-31T07:11:37;94842.25;;;24.21;54.74
5691;BME280;2870;42.680;23.364;2023-08-31T07:14:04;94836.09;;;24.49;53.96
5691;BME280;2870;42.680;23.364;2023-08-31T07:16:30;94839.94;;;24.36;51.99
5691;BME280;2870;42.680;23.364;2023-08-31T07:18:57;94840.94;;;24.24;52.61
5691;BME280;2870;42.680;23.364;2023-08-31T07:21:24;94846.50;;;24.20;53.82
5691;BME280;2870;42.680;23.364;2023-08-31T07:23:52;94846.59;;;24.82;51.10
5691;BME280;2870;42.680;23.364;2023-08-31T07:26:20;94847.09;;;24.96;51.87
5691;BME280;2870;42.680;23.364;2023-08-31T07:28:47;94847.03;;;25.16;50.44
5691;BME280;2870;42.680;23.364;2023-08-31T07:31:14;94838.28;;;25.12;50.35
5691;BME280;2870;42.680;23.364;2023-08-31T07:33:41;94844.56;;;25.50;49.26
5691;BME280;2870;42.680;23.364;2023-08-31T07:36:08;94857.47;;;25.95;49.83
5691;BME280;2870;42.680;23.364;2023-08-31T07:38:35;94845.63;;;26.07;48.40
5691;BME280;2870;42.680;23.364;2023-08-31T07:41:02;94845.50;;;26.27;47.37
5691;BME280;2870;42.680;23.364;2023-08-31T07:43:30;94850.03;;;25.64;48.64
5691;BME280;2870;42.680;23.364;2023-08-31T07:45:57;94850.38;;;26.22;47.21
5691;BME280;2870;42.680;23.364;2023-08-31T07:48:24;94863.28;;;27.23;44.90
5691;BME280;2870;42.680;23.364;2023-08-31T07:50:51;94861.16;;;28.16;44.02
5691;BME280;2870;42.680;23.364;2023-08-31T07:53:18;94860.13;;;28.33;42.30
5691;BME280;2870;42.680;23.364;2023-08-31T07:55:51;94859.88;;;27.61;42.71
5691;BME280;2870;42.680;23.364;2023-08-31T07:58:19;94857.72;;;28.23;42.24
5691;BME280;2870;42.680;23.364;2023-08-31T08:00:48;94856.47;;;28.67;41.52
5691;BME280;2870;42.680;23.364;2023-08-31T08:03:15;94871.13;;;29.15;40.86
5691;BME280;2870;42.680;23.364;2023-08-31T08:05:41;94858.94;;;29.19;40.01
5691;BME280;2870;42.680;23.364;2023-08-31T08:08:08;94854.81;;;29.32;39.28
5691;BME280;2870;42.680;23.364;2023-08-31T08:10:35;94857.19;;;29.44;39.27
5691;BME280;2870;42.680;23.364;2023-08-31T08:13:02;94851.47;;;29.90;38.42
5691;BME280;2870;42.680;23.364;2023-08-31T08:15:29;94863.84;;;29.97;38.64
5691;BME280;2870;42.680;23.364;2023-08-31T08:17:58;94860.13;;;30.39;37.89
5691;BME280;2870;42.680;23.364;2023-08-31T08:20:25;94858.16;;;30.57;37.96
5691;BME280;2870;42.680;23.364;2023-08-31T08:22:51;94857.94;;;30.39;37.40
5691;BME280;2870;42.680;23.364;2023-08-31T08:25:18;94863.22;;;30.55;37.68
5691;BME280;2870;42.680;23.364;2023-08-31T08:27:45;94850.47;;;30.22;37.06
5691;BME280;2870;42.680;23.364;2023-08-31T08:30:12;94848.63;;;29.08;39.08
5691;BME280;2870;42.680;23.364;2023-08-31T08:32:40;94842.81;;;29.94;37.46
5691;BME280;2870;42.680;23.364;2023-08-31T08:35:09;94846.06;;;29.68;37.61
5691;BME280;2870;42.680;23.364;2023-08-31T08:37:35;94859.66;;;30.58;35.08
5691;BME280;2870;42.680;23.364;2023-08-31T08:40:03;94852.66;;;30.23;33.79
5691;BME280;2870;42.680;23.364;2023-08-31T08:42:30;94867.97;;;29.83;34.15
5691;BME280;2870;42.680;23.364;2023-08-31T08:44:58;94861.19;;;31.28;32.83
5691;BME280;2870;42.680;23.364;2023-08-31T08:47:25;94850.69;;;30.95;31.72
5691;BME280;2870;42.680;23.364;2023-08-31T08:49:53;94854.00;;;31.35;32.74
5691;BME280;2870;42.680;23.364;2023-08-31T08:52:22;94852.31;;;31.14;32.00
5691;BME280;2870;42.680;23.364;2023-08-31T08:54:49;94846.28;;;31.64;31.45
5691;BME280;2870;42.680;23.364;2023-08-31T08:57:16;94853.31;;;32.28;29.50
5691;BME280;2870;42.680;23.364;2023-08-31T08:59:43;94849.22;;;31.69;28.48
5691;BME280;2870;42.680;23.364;2023-08-31T09:02:11;94853.94;;;32.12;28.90
5691;BME280;2870;42.680;23.364;2023-08-31T09:04:38;94856.63;;;31.86;27.50
5691;BME280;2870;42.680;23.364;2023-08-31T09:07:05;94851.03;;;32.12;27.73
5691;BME280;2870;42.680;23.364;2023-08-31T09:09:48;94848.34;;;32.47;27.22
5691;BME280;2870;42.680;23.364;2023-08-31T09:12:15;94849.47;;;31.97;28.24
5691;BME280;2870;42.680;23.364;2023-08-31T09:14:42;94844.97;;;33.16;29.65
5691;BME280;2870;42.680;23.364;2023-08-31T09:17:09;94861.94;;;32.22;27.82
5691;BME280;2870;42.680;23.364;2023-08-31T09:19:36;94847.03;;;32.85;27.27
5691;BME280;2870;42.680;23.364;2023-08-31T09:22:03;94845.31;;;32.31;27.10
5691;BME280;2870;42.680;23.364;2023-08-31T09:24:40;94861.16;;;32.09;28.17
5691;BME280;2870;42.680;23.364;2023-08-31T09:27:07;94847.09;;;32.97;28.04
5691;BME280;2870;42.680;23.364;2023-08-31T09:29:37;94850.00;;;33.01;27.83
5691;BME280;2870;42.680;23.364;2023-08-31T09:32:04;94854.38;;;32.98;28.18
5691;BME280;2870;42.680;23.364;2023-08-31T09:34:35;94853.94;;;32.14;28.82
5691;BME280;2870;42.680;23.364;2023-08-31T09:37:05;94847.22;;;33.42;28.19
5691;BME280;2870;42.680;23.364;2023-08-31T09:39:37;94852.81;;;32.75;28.06
5691;BME280;2870;42.680;23.364;2023-08-31T09:42:04;94844.06;;;32.66;27.96
5691;BME280;2870;42.680;23.364;2023-08-31T09:44:31;94845.28;;;32.25;28.77
5691;BME280;2870;42.680;23.364;2023-08-31T09:46:58;94843.47;;;33.05;27.81
5691;BME280;2870;42.680;23.364;2023-08-31T09:49:26;94845.63;;;32.90;29.03
5691;BME280;2870;42.680;23.364;2023-08-31T09:51:52;94851.59;;;33.73;27.53
5691;BME280;2870;42.680;23.364;2023-08-31T09:54:20;94834.84;;;34.03;27.06
5691;BME280;2870;42.680;23.364;2023-08-31T09:56:51;94842.81;;;33.27;27.58
5691;BME280;2870;42.680;23.364;2023-08-31T09:59:22;94839.94;;;33.88;27.38
5691;BME280;2870;42.680;23.364;2023-08-31T10:01:49;94842.66;;;32.82;29.17
5691;BME280;2870;42.680;23.364;2023-08-31T10:04:16;94849.34;;;33.39;28.42
5691;BME280;2870;42.680;23.364;2023-08-31T10:06:43;94842.50;;;32.41;27.79
5691;BME280;2870;42.680;23.364;2023-08-31T10:09:10;94832.59;;;33.11;27.75
5691;BME280;2870;42.680;23.364;2023-08-31T10:11:38;94825.78;;;32.37;27.14
5691;BME280;2870;42.680;23.364;2023-08-31T10:14:07;94826.34;;;31.22;28.79
5691;BME280;2870;42.680;23.364;2023-08-31T10:16:35;94843.25;;;30.75;29.34
5691;BME280;2870;42.680;23.364;2023-08-31T10:19:03;94833.03;;;31.39;30.27
5691;BME280;2870;42.680;23.364;2023-08-31T10:21:31;94834.53;;;31.46;27.87
5691;BME280;2870;42.680;23.364;2023-08-31T10:23:59;94838.97;;;30.82;28.02
5691;BME280;2870;42.680;23.364;2023-08-31T10:26:28;94829.50;;;30.76;28.92
5691;BME280;2870;42.680;23.364;2023-08-31T10:28:55;94841.00;;;31.38;28.58
5691;BME280;2870;42.680;23.364;2023-08-31T10:31:27;94833.03;;;31.39;27.65
5691;BME280;2870;42.680;23.364;2023-08-31T10:33:58;94821.63;;;30.28;28.44
5691;BME280;2870;42.680;23.364;2023-08-31T10:36:36;94826.34;;;30.03;30.01
5691;BME280;2870;42.680;23.364;2023-08-31T10:39:10;94827.13;;;30.07;30.13
5691;BME280;2870;42.680;23.364;2023-08-31T10:41:38;94835.38;;;29.35;29.82
5691;BME280;2870;42.680;23.364;2023-08-31T10:44:18;94834.47;;;29.24;30.79
5691;BME280;2870;42.680;23.364;2023-08-31T10:46:46;94833.88;;;29.31;30.86
5691;BME280;2870;42.680;23.364;2023-08-31T10:49:15;94838.34;;;28.98;32.30
5691;BME280;2870;42.680;23.364;2023-08-31T10:51:44;94834.44;;;28.84;31.38
5691;BME280;2870;42.680;23.364;2023-08-31T10:54:12;94831.78;;;29.36;31.37
5691;BME280;2870;42.680;23.364;2023-08-31T10:57:01;94828.75;;;29.72;31.17
5691;BME280;2870;42.680;23.364;2023-08-31T10:59:45;94840.78;;;29.54;31.13
5691;BME280;2870;42.680;23.364;2023-08-31T11:05:09;94835.97;;;29.71;30.99
5691;BME280;2870;42.680;23.364;2023-08-31T11:07:37;94833.78;;;29.70;31.20
5691;BME280;2870;42.680;23.364;2023-08-31T11:10:14;94827.81;;;29.55;31.51
5691;BME280;2870;42.680;23.364;2023-08-31T11:12:43;94830.78;;;29.62;32.33
5691;BME280;2870;42.680;23.364;2023-08-31T11:15:12;94835.72;;;29.13;32.80
5691;BME280;2870;42.680;23.364;2023-08-31T11:17:40;94842.97;;;28.77;33.42
5691;BME280;2870;42.680;23.364;2023-08-31T11:20:09;94835.75;;;29.15;33.34
5691;BME280;2870;42.680;23.364;2023-08-31T11:22:40;94848.38;;;29.36;33.45
5691;BME280;2870;42.680;23.364;2023-08-31T11:25:08;94837.94;;;29.16;34.05
5691;BME280;2870;42.680;23.364;2023-08-31T11:27:35;94837.41;;;28.88;33.23
5691;BME280;2870;42.680;23.364;2023-08-31T11:30:03;94831.22;;;28.65;33.46
5691;BME280;2870;42.680;23.364;2023-08-31T11:32:30;94837.25;;;28.79;33.77
5691;BME280;2870;42.680;23.364;2023-08-31T11:34:57;94833.63;;;29.17;33.95
5691;BME280;2870;42.680;23.364;2023-08-31T11:37:25;94828.53;;;29.16;33.33
5691;BME280;2870;42.680;23.364;2023-08-31T11:39:53;94837.88;;;29.54;33.02
5691;BME280;2870;42.680;23.364;2023-08-31T11:42:21;94841.22;;;28.98;32.41
5691;BME280;2870;42.680;23.364;2023-08-31T11:44:50;94840.75;;;29.12;33.84
5691;BME280;2870;42.680;23.364;2023-08-31T11:47:17;94806.19;;;28.78;32.80
5691;BME280;2870;42.680;23.364;2023-08-31T11:49:45;94827.69;;;28.35;33.42
5691;BME280;2870;42.680;23.364;2023-08-31T11:52:14;94830.00;;;28.08;35.63
5691;BME280;2870;42.680;23.364;2023-08-31T11:54:42;94821.50;;;28.48;35.80
5691;BME280;2870;42.680;23.364;2023-08-31T11:57:11;94821.16;;;29.04;35.60
5691;BME280;2870;42.680;23.364;2023-08-31T11:59:39;94825.06;;;29.23;35.06
5691;BME280;2870;42.680;23.364;2023-08-31T12:02:06;94827.91;;;29.21;34.80
5691;BME280;2870;42.680;23.364;2023-08-31T12:04:41;94822.47;;;29.40;34.69
5691;BME280;2870;42.680;23.364;2023-08-31T12:07:09;94817.06;;;29.20;34.18
5691;BME280;2870;42.680;23.364;2023-08-31T12:09:36;94825.53;;;29.10;35.66
5691;BME280;2870;42.680;23.364;2023-08-31T12:12:04;94833.13;;;28.91;35.22
5691;BME280;2870;42.680;23.364;2023-08-31T12:14:31;94820.31;;;28.62;35.52
5691;BME280;2870;42.680;23.364;2023-08-31T12:17:02;94820.91;;;28.56;35.87
5691;BME280;2870;42.680;23.364;2023-08-31T12:19:29;94814.25;;;28.47;35.37
5691;BME280;2870;42.680;23.364;2023-08-31T12:21:56;94816.00;;;28.63;35.79
5691;BME280;2870;42.680;23.364;2023-08-31T12:24:23;94807.44;;;28.69;34.65
5691;BME280;2870;42.680;23.364;2023-08-31T12:26:50;94803.91;;;29.11;34.85
5691;BME280;2870;42.680;23.364;2023-08-31T12:29:20;94807.31;;;29.41;34.46
5691;BME280;2870;42.680;23.364;2023-08-31T12:31:47;94808.59;;;29.32;33.68
5691;BME280;2870;42.680;23.364;2023-08-31T12:34:14;94806.38;;;29.28;35.47
5691;BME280;2870;42.680;23.364;2023-08-31T12:36:41;94780.34;;;28.86;34.44
5691;BME280;2870;42.680;23.364;2023-08-31T12:39:08;94806.00;;;28.68;35.21
5691;BME280;2870;42.680;23.364;2023-08-31T12:41:36;94817.88;;;28.48;35.50
5691;BME280;2870;42.680;23.364;2023-08-31T12:44:03;94808.34;;;28.77;35.65
5691;BME280;2870;42.680;23.364;2023-08-31T12:46:31;94810.22;;;28.63;35.65
5691;BME280;2870;42.680;23.364;2023-08-31T12:48:59;94809.41;;;28.58;36.06
5691;BME280;2870;42.680;23.364;2023-08-31T12:51:26;94818.66;;;28.50;36.17
5691;BME280;2870;42.680;23.364;2023-08-31T12:53:53;94807.31;;;27.92;36.50
5691;BME280;2870;42.680;23.364;2023-08-31T12:56:20;94798.56;;;27.88;36.84
5691;BME280;2870;42.680;23.364;2023-08-31T12:58:48;94809.47;;;27.92;36.49
5691;BME280;2870;42.680;23.364;2023-08-31T13:01:15;94797.47;;;27.71;36.87
5691;BME280;2870;42.680;23.364;2023-08-31T13:03:43;94784.38;;;27.98;36.99
5691;BME280;2870;42.680;23.364;2023-08-31T13:06:10;94796.78;;;28.05;36.38
5691;BME280;2870;42.680;23.364;2023-08-31T13:08:37;94795.38;;;27.74;35.98
5691;BME280;2870;42.680;23.364;2023-08-31T13:11:04;94798.31;;;27.76;36.58
5691;BME280;2870;42.680;23.364;2023-08-31T13:13:32;94778.63;;;27.36;35.99
5691;BME280;2870;42.680;23.364;2023-08-31T13:15:59;94804.66;;;27.70;36.23
5691;BME280;2870;42.680;23.364;2023-08-31T13:18:26;94806.81;;;27.70;36.22
5691;BME280;2870;42.680;23.364;2023-08-31T13:20:55;94806.53;;;27.60;36.04